Atlanta, Georgia
Current Conditions -  °F | °C
As of 6:52 AM on Monday 20 Oct 2014 (Local Time) from KATL Reporting Station
Clear Clear  
Wind Chill: 52°   Ceiling: Unl
Heat Index: 52°   Visibility: 10mi
Dew Point: 47°   Wind: 0mph
Humidity: 83%   Direction: NA
Pressure: 30.1"   Gusts: NA
Location:  33.75°N, 84.39°W
Report Text: KATL 201052Z 00000KT 10SM CLR 11/08 A3010 RMK AO2 SLP190 T01110083
Loading
Personal Weather Stations






























Interactive Weather Map New forecast layout! Learn more

10-Day Weather Forecast

Advertisements
Track Severe Weather on mobile